createdAt,value
2023-05-12T00:01:17.420Z,5.3
2023-05-12T00:03:28.986Z,5.26
2023-05-12T00:05:40.049Z,5.26
2023-05-12T00:07:53.118Z,5.25
2023-05-12T00:10:04.609Z,5.24
2023-05-12T00:12:17.076Z,5.24
2023-05-12T00:14:28.136Z,5.23
2023-05-12T00:16:41.367Z,5.22
2023-05-12T00:18:52.724Z,5.24
2023-05-12T00:21:04.986Z,5.21
2023-05-12T00:23:16.106Z,5.16
2023-05-12T00:25:26.604Z,5.14
2023-05-12T00:27:37.672Z,5.15
2023-05-12T00:29:48.948Z,5.1
2023-05-12T00:32:01.387Z,5.13
2023-05-12T00:34:13.259Z,5.12
2023-05-12T00:36:24.000Z,5.12
2023-05-12T00:38:34.943Z,5.09
2023-05-12T00:40:46.291Z,5.06
2023-05-12T00:42:56.659Z,5.01
2023-05-12T00:45:06.703Z,5.02
2023-05-12T00:47:19.768Z,4.96
2023-05-12T00:49:33.130Z,4.91
2023-05-12T00:51:46.325Z,4.89
2023-05-12T00:53:57.271Z,4.86
2023-05-12T00:56:08.138Z,4.81
2023-05-12T00:58:18.452Z,4.82
2023-05-12T01:00:30.277Z,4.82
2023-05-12T01:02:40.830Z,4.8
2023-05-12T01:04:51.807Z,4.73
2023-05-12T01:07:03.082Z,4.72
2023-05-12T01:09:15.401Z,4.73
2023-05-12T01:11:26.525Z,4.76
2023-05-12T01:13:38.404Z,4.7
2023-05-12T01:15:49.331Z,4.73
2023-05-12T01:18:01.576Z,4.72
2023-05-12T01:20:12.525Z,4.7
2023-05-12T01:22:23.903Z,4.72
2023-05-12T01:24:34.409Z,4.67
2023-05-12T01:26:46.521Z,4.62
2023-05-12T01:28:57.425Z,4.59
2023-05-12T01:31:08.850Z,4.53
2023-05-12T01:33:19.684Z,4.51
2023-05-12T01:35:31.347Z,4.48
2023-05-12T01:37:41.983Z,4.43
2023-05-12T01:39:52.504Z,4.41
2023-05-12T01:42:02.962Z,4.37
2023-05-12T01:44:14.297Z,4.33
2023-05-12T01:46:23.826Z,4.4
2023-05-12T01:48:35.228Z,4.39
2023-05-12T01:50:47.124Z,4.34
2023-05-12T01:52:57.240Z,4.33
2023-05-12T01:55:12.533Z,4.32
2023-05-12T01:57:26.970Z,4.28
2023-05-12T01:59:38.031Z,4.28
2023-05-12T02:01:53.883Z,4.24
2023-05-12T02:04:06.102Z,4.24
2023-05-12T02:06:18.253Z,4.22
2023-05-12T02:08:28.454Z,4.19
2023-05-12T02:10:41.986Z,4.18
2023-05-12T02:12:52.325Z,4.16
2023-05-12T02:15:03.834Z,4.14
2023-05-12T02:17:16.007Z,4.18
2023-05-12T02:19:29.005Z,4.2
2023-05-12T02:21:39.209Z,4.17
2023-05-12T02:23:52.803Z,4.21
2023-05-12T02:26:02.655Z,4.16
2023-05-12T02:28:12.898Z,4.11
2023-05-12T02:30:24.288Z,4.12
2023-05-12T02:32:35.901Z,4.09
2023-05-12T02:34:48.745Z,4.04
2023-05-12T02:37:02.066Z,4.01
2023-05-12T02:39:13.076Z,3.96
2023-05-12T02:41:24.874Z,3.92
2023-05-12T02:43:36.184Z,3.87
2023-05-12T02:45:47.999Z,3.85
2023-05-12T02:47:59.219Z,3.87
2023-05-12T02:50:12.712Z,3.89
2023-05-12T02:52:23.708Z,3.89
2023-05-12T02:54:34.911Z,3.89
2023-05-12T02:56:46.011Z,3.88
2023-05-12T02:58:56.213Z,3.9
2023-05-12T03:01:11.052Z,3.94
2023-05-12T03:03:25.243Z,3.94
2023-05-12T03:05:37.059Z,4.01
2023-05-12T03:07:49.889Z,4
2023-05-12T03:10:00.558Z,3.96
2023-05-12T03:12:13.673Z,3.97
2023-05-12T03:14:24.271Z,3.99
2023-05-12T03:16:39.456Z,4
2023-05-12T03:18:52.384Z,3.97
2023-05-12T03:21:04.736Z,3.96
2023-05-12T03:23:16.536Z,3.98
2023-05-12T03:25:28.195Z,3.97
2023-05-12T03:27:38.978Z,3.97
2023-05-12T03:29:51.151Z,3.97
2023-05-12T03:32:02.045Z,4.01
2023-05-12T03:34:13.200Z,4.06
2023-05-12T03:36:23.794Z,4.07
2023-05-12T03:38:35.286Z,4.11
2023-05-12T03:40:49.439Z,4.23
2023-05-12T03:43:02.284Z,4.26
2023-05-12T03:45:12.976Z,4.32
2023-05-12T03:47:28.469Z,4.38
2023-05-12T03:49:42.051Z,4.51
2023-05-12T03:51:54.990Z,4.59
2023-05-12T03:54:06.892Z,4.62
2023-05-12T03:56:18.294Z,4.65
2023-05-12T03:58:28.913Z,4.68
2023-05-12T04:00:39.717Z,4.77
2023-05-12T04:02:55.707Z,4.95
2023-05-12T04:05:07.423Z,5.15
2023-05-12T04:07:18.734Z,5.19
2023-05-12T04:09:32.181Z,5.44
2023-05-12T04:11:46.213Z,5.64
2023-05-12T04:13:56.729Z,5.78
2023-05-12T04:16:09.987Z,6.09
2023-05-12T04:18:21.459Z,6.27
2023-05-12T04:20:32.546Z,6.38
2023-05-12T04:22:43.531Z,6.54
2023-05-12T04:24:54.412Z,6.71
2023-05-12T04:27:05.551Z,6.91
2023-05-12T04:29:17.520Z,7.03
2023-05-12T04:31:30.242Z,7.11
2023-05-12T04:33:46.458Z,7.19
2023-05-12T04:35:59.599Z,7.61
2023-05-12T04:38:10.445Z,7.77
2023-05-12T04:40:26.793Z,7.92
2023-05-12T04:42:44.224Z,8.16
2023-05-12T04:44:58.582Z,8.56
2023-05-12T04:47:37.202Z,8.88
2023-05-12T04:49:50.612Z,9.06
2023-05-12T04:52:03.148Z,9.09
2023-05-12T04:54:14.610Z,9.27
2023-05-12T04:56:26.252Z,9.47
2023-05-12T04:58:37.200Z,9.54
2023-05-12T05:00:49.454Z,9.69
2023-05-12T05:03:09.550Z,9.92
2023-05-12T05:05:23.592Z,10.12
2023-05-12T05:07:34.914Z,10.26
2023-05-12T05:09:47.132Z,10.41
2023-05-12T05:11:59.790Z,10.52
2023-05-12T05:14:11.928Z,10.55
2023-05-12T05:16:23.517Z,10.75
2023-05-12T05:18:33.681Z,11.13
2023-05-12T05:20:50.605Z,11.32
2023-05-12T05:23:11.471Z,11.55
2023-05-12T05:25:26.070Z,11.5
2023-05-12T05:27:37.392Z,11.64
2023-05-12T05:29:50.292Z,11.75
2023-05-12T05:32:04.196Z,11.85
2023-05-12T05:34:18.724Z,11.83
2023-05-12T05:36:31.039Z,11.79
2023-05-12T05:38:43.553Z,11.97
2023-05-12T05:40:54.840Z,12.2
2023-05-12T05:43:04.854Z,12.19
2023-05-12T05:45:16.150Z,12.07
2023-05-12T05:47:35.899Z,12.17
2023-05-12T05:49:49.413Z,12.35
2023-05-12T05:52:04.229Z,12.51
2023-05-12T05:54:17.123Z,12.71
2023-05-12T05:56:29.692Z,12.91
2023-05-12T05:58:42.933Z,12.93
2023-05-12T06:00:57.567Z,12.95
2023-05-12T06:03:11.649Z,13.15
2023-05-12T06:07:38.666Z,13.24
2023-05-12T06:09:51.547Z,13.35
2023-05-12T06:12:03.608Z,13.53
2023-05-12T06:14:14.670Z,13.64
2023-05-12T06:16:28.112Z,13.61
2023-05-12T06:18:43.843Z,13.74
2023-05-12T06:20:55.249Z,13.87
2023-05-12T06:23:12.788Z,13.98
2023-05-12T06:25:26.407Z,14
2023-05-12T06:27:40.644Z,14.11
2023-05-12T06:29:59.877Z,14.17
2023-05-12T06:32:12.099Z,14.32
2023-05-12T06:34:25.602Z,14.4
2023-05-12T06:36:39.208Z,14.45
2023-05-12T06:38:50.472Z,14.55
2023-05-12T06:41:02.172Z,14.74
2023-05-12T06:43:14.729Z,14.88
2023-05-12T06:45:28.138Z,15.02
2023-05-12T06:47:41.167Z,15.14
2023-05-12T06:49:57.096Z,15.29
2023-05-12T06:52:14.894Z,15.34
2023-05-12T06:54:26.390Z,15.46
2023-05-12T06:56:37.715Z,15.42
2023-05-12T06:58:49.289Z,15.5
2023-05-12T07:01:02.193Z,15.84
2023-05-12T07:03:16.352Z,16.16
2023-05-12T07:05:29.338Z,16.41
2023-05-12T07:07:40.274Z,16.81
2023-05-12T07:09:52.252Z,17.15
2023-05-12T07:12:04.050Z,17.32
2023-05-12T07:14:14.733Z,17.33
2023-05-12T07:16:28.835Z,17.5
2023-05-12T07:18:41.032Z,17.32
2023-05-12T07:20:58.409Z,17.29
2023-05-12T07:23:12.133Z,17.72
2023-05-12T07:25:23.068Z,17.88
2023-05-12T07:27:36.264Z,17.64
2023-05-12T07:32:19.526Z,18.12
2023-05-12T07:34:37.309Z,18.35
2023-05-12T07:36:47.803Z,18.19
2023-05-12T07:39:01.756Z,18.24
2023-05-12T07:41:12.867Z,18.19
2023-05-12T07:43:23.566Z,18.41
2023-05-12T07:45:35.386Z,18.58
2023-05-12T07:47:47.668Z,18.75
2023-05-12T07:49:58.374Z,18.77
2023-05-12T07:52:13.364Z,18.93
2023-05-12T07:54:24.930Z,19
2023-05-12T07:56:36.374Z,19.33
2023-05-12T07:58:50.476Z,19.13
2023-05-12T08:01:13.156Z,19.54
2023-05-12T08:03:26.074Z,19.88
2023-05-12T08:05:37.635Z,19.68
2023-05-12T08:07:50.053Z,19.61
2023-05-12T08:10:03.241Z,19.56
2023-05-12T08:12:18.800Z,19.59
2023-05-12T08:14:29.612Z,19.69
2023-05-12T08:16:40.476Z,19.8
2023-05-12T08:18:52.567Z,20.04
2023-05-12T08:21:05.709Z,20.55
2023-05-12T08:23:16.567Z,19.81
2023-05-12T08:25:28.691Z,19.93
2023-05-12T08:27:47.169Z,20.55
2023-05-12T08:30:00.970Z,20.15
2023-05-12T08:32:16.958Z,20.19
2023-05-12T08:34:27.390Z,20.06
2023-05-12T08:36:38.444Z,19.89
2023-05-12T08:38:51.370Z,19.98
2023-05-12T08:41:05.170Z,20.08
2023-05-12T08:45:42.226Z,20.49
2023-05-12T08:47:54.422Z,20.31
2023-05-12T08:50:06.366Z,20.2
2023-05-12T08:52:15.926Z,20.43
2023-05-12T08:54:26.783Z,20.75
2023-05-12T08:59:14.246Z,20.64
2023-05-12T09:01:24.657Z,20.68
2023-05-12T09:03:35.432Z,21.45
2023-05-12T09:05:52.124Z,21.03
2023-05-12T09:08:04.902Z,21.03
2023-05-12T09:10:32.649Z,20.35
2023-05-12T09:12:45.986Z,20.53
2023-05-12T09:14:57.306Z,20.86
2023-05-12T09:17:08.667Z,21.39
2023-05-12T09:19:19.987Z,22
2023-05-12T09:21:30.047Z,21.81
2023-05-12T09:23:40.550Z,20.79
2023-05-12T09:25:54.467Z,20.99
2023-05-12T09:28:07.216Z,20.76
2023-05-12T09:30:22.892Z,20.8
2023-05-12T09:32:35.079Z,20.85
2023-05-12T09:34:46.648Z,21.63
2023-05-12T09:36:59.253Z,22.29
2023-05-12T09:39:10.750Z,21.34
2023-05-12T09:41:21.089Z,21.07
2023-05-12T09:43:32.853Z,21.8
2023-05-12T09:45:45.417Z,21.87
2023-05-12T09:47:56.518Z,21.98
2023-05-12T09:50:07.551Z,22.26
2023-05-12T09:52:19.213Z,21.14
2023-05-12T09:54:35.170Z,22.38
2023-05-12T09:56:46.326Z,22.6
2023-05-12T10:01:37.215Z,22.86
2023-05-12T10:03:50.562Z,22.17
2023-05-12T10:06:06.424Z,21.37
2023-05-12T10:08:19.239Z,22.29
2023-05-12T10:10:32.224Z,23.17
2023-05-12T10:12:45.142Z,22.22
2023-05-12T10:14:55.824Z,22.32
2023-05-12T10:17:06.936Z,22.56
2023-05-12T10:19:18.499Z,22.28
2023-05-12T10:21:28.884Z,22.38
2023-05-12T10:23:39.811Z,22.59
2023-05-12T10:25:52.462Z,22.47
2023-05-12T10:28:05.680Z,22.15
2023-05-12T10:30:16.132Z,22.64
2023-05-12T10:32:27.910Z,22.71
2023-05-12T10:34:40.546Z,23.28
2023-05-12T10:56:13.765Z,22.37
2023-05-12T10:58:26.783Z,22.52
2023-05-12T11:00:44.806Z,23.11
2023-05-12T11:03:02.770Z,22.98
2023-05-12T11:05:25.522Z,23.34
2023-05-12T11:07:39.917Z,22.02
2023-05-12T11:09:59.472Z,22.36
2023-05-12T11:12:17.330Z,21.97
2023-05-12T11:14:27.896Z,22
2023-05-12T11:16:40.991Z,23.02
2023-05-12T11:18:56.942Z,23.3
2023-05-12T11:21:14.791Z,22.97
2023-05-12T11:27:10.408Z,22.83
2023-05-12T11:29:23.814Z,22.6
2023-05-12T11:31:41.431Z,23.86
2023-05-12T11:34:04.736Z,23.52
2023-05-12T11:36:25.250Z,23.06
2023-05-12T11:38:38.775Z,23.28
2023-05-12T11:40:52.664Z,23.19
2023-05-12T11:43:04.417Z,23.58
2023-05-12T11:45:15.970Z,22.81
2023-05-12T11:47:29.901Z,22.44
2023-05-12T11:52:26.380Z,23.87
2023-05-12T11:59:17.930Z,23.28
2023-05-12T12:01:29.800Z,23.73
2023-05-12T12:03:43.044Z,23.07
2023-05-12T12:05:56.398Z,22.91
2023-05-12T12:08:10.574Z,23.12
2023-05-12T12:10:28.217Z,23.36
2023-05-12T12:12:40.716Z,23.68
2023-05-12T12:14:52.807Z,22.8
2023-05-12T12:17:05.073Z,22.37
2023-05-12T12:19:19.701Z,23.63
2023-05-12T12:21:32.820Z,23.36
2023-05-12T12:27:10.439Z,23.43
2023-05-12T12:29:54.554Z,22.54
2023-05-12T12:32:16.096Z,24.42
2023-05-12T12:34:29.580Z,24.75
2023-05-12T12:36:46.376Z,24.57
2023-05-12T12:39:06.012Z,24.13
2023-05-12T12:41:34.137Z,24.1
2023-05-12T12:43:51.372Z,23.23
2023-05-12T12:46:03.983Z,22.35
2023-05-12T12:48:14.733Z,22.81
2023-05-12T12:53:02.413Z,22.55
2023-05-12T12:55:14.452Z,23.52
2023-05-12T12:57:27.756Z,23.94
2023-05-12T12:59:41.751Z,24.63
2023-05-12T13:01:53.629Z,24.31
2023-05-12T13:04:07.480Z,24.51
2023-05-12T13:06:22.938Z,24.74
2023-05-12T13:08:34.876Z,25.64
2023-05-12T13:10:47.731Z,24.68
2023-05-12T13:13:01.779Z,25.03
2023-05-12T13:15:13.369Z,24.17
2023-05-12T13:17:51.641Z,24.34
2023-05-12T13:25:07.002Z,23.83
2023-05-12T13:27:21.256Z,24.34
2023-05-12T13:29:35.061Z,23.43
2023-05-12T13:31:49.575Z,22.56
2023-05-12T13:34:04.592Z,22.54
2023-05-12T13:36:19.056Z,23.64
2023-05-12T13:38:41.650Z,22.7
2023-05-12T13:43:32.884Z,22.8
2023-05-12T13:45:46.437Z,23.09
2023-05-12T13:48:06.005Z,22.63
2023-05-12T13:50:19.469Z,22.78
2023-05-12T13:54:58.070Z,23.77
2023-05-12T13:57:15.632Z,23.17
2023-05-12T13:59:30.047Z,24.08
2023-05-12T14:01:42.703Z,23.93
2023-05-12T14:03:59.568Z,23.3
2023-05-12T14:06:19.185Z,23.18
2023-05-12T14:08:34.207Z,22.75
2023-05-12T14:10:52.389Z,22.84
2023-05-12T14:13:05.360Z,23.19
2023-05-12T14:15:29.346Z,22.99
2023-05-12T14:18:02.658Z,23.48
2023-05-12T14:20:16.501Z,23.19
2023-05-12T14:22:30.577Z,22.6
2023-05-12T14:24:49.712Z,22.78
2023-05-12T14:27:11.737Z,23.15
2023-05-12T14:29:26.048Z,23.02
2023-05-12T14:31:40.324Z,23.09
2023-05-12T14:33:56.320Z,22.81
2023-05-12T14:36:08.661Z,21.79
2023-05-12T14:38:23.296Z,21.67
2023-05-12T14:40:44.488Z,21.55
2023-05-12T14:42:59.712Z,21.48
2023-05-12T14:45:22.138Z,21.44
2023-05-12T14:47:40.154Z,21.44
2023-05-12T14:49:52.867Z,21.03
2023-05-12T14:52:07.551Z,20.83
2023-05-12T14:56:57.336Z,20.02
2023-05-12T15:01:26.832Z,19.91
2023-05-12T15:03:43.766Z,19.9
2023-05-12T15:06:06.241Z,19.71
2023-05-12T15:08:27.173Z,19.94
2023-05-12T15:10:41.555Z,19.92
2023-05-12T15:15:34.507Z,19.43
2023-05-12T15:20:56.179Z,19.5
2023-05-12T15:28:40.914Z,19.76
2023-05-12T15:30:54.590Z,19.93
2023-05-12T15:33:10.838Z,20.1
2023-05-12T15:35:30.933Z,20.26
2023-05-12T15:37:44.315Z,20.21
2023-05-12T15:42:19.465Z,20
2023-05-12T15:44:43.994Z,19.61
2023-05-12T15:46:55.628Z,19.54
2023-05-12T15:49:13.654Z,19.78
2023-05-12T15:51:31.071Z,20.06
2023-05-12T15:53:48.153Z,20.68
2023-05-12T15:56:02.655Z,21.19
2023-05-12T15:58:15.401Z,21.4
2023-05-12T16:00:34.486Z,21.61
2023-05-12T16:02:50.101Z,21.49
2023-05-12T16:05:06.096Z,21.26
2023-05-12T16:07:17.994Z,21.3
2023-05-12T16:09:37.276Z,21.53
2023-05-12T16:11:51.775Z,21.63
2023-05-12T16:16:36.649Z,20.5
2023-05-12T16:18:53.867Z,20.23
2023-05-12T16:21:11.911Z,19.67
2023-05-12T16:23:33.276Z,19.4
2023-05-12T16:25:46.833Z,19.27
2023-05-12T16:28:01.534Z,19.13
2023-05-12T16:30:19.869Z,18.86
2023-05-12T16:32:40.901Z,18.8
2023-05-12T16:34:56.537Z,18.83
2023-05-12T16:40:03.254Z,18.78
2023-05-12T16:42:17.700Z,18.85
2023-05-12T16:44:30.978Z,18.93
2023-05-12T16:46:43.841Z,18.93
2023-05-12T16:51:09.031Z,18.88
2023-05-12T16:53:24.628Z,18.84
2023-05-12T16:55:37.836Z,18.79
2023-05-12T16:57:54.670Z,18.68
2023-05-12T17:00:08.875Z,18.62
2023-05-12T17:02:27.303Z,18.36
2023-05-12T17:04:49.187Z,18.31
2023-05-12T17:09:19.089Z,18.02
2023-05-12T17:11:31.353Z,17.91
2023-05-12T17:13:53.710Z,17.62
2023-05-12T17:16:09.607Z,17.48
2023-05-12T17:18:23.217Z,17.27
2023-05-12T17:20:35.728Z,17.17
2023-05-12T17:22:55.537Z,16.98
2023-05-12T17:25:11.851Z,16.75
2023-05-12T17:29:43.025Z,16.43
2023-05-12T17:31:56.879Z,16.17
2023-05-12T17:34:07.875Z,15.97
2023-05-12T17:36:25.673Z,15.79
2023-05-12T17:38:40.052Z,15.59
2023-05-12T17:40:53.517Z,15.37
2023-05-12T17:43:12.478Z,15.15
2023-05-12T17:45:29.756Z,14.93
2023-05-12T17:47:45.825Z,14.73
2023-05-12T17:50:02.696Z,14.53
2023-05-12T17:52:15.392Z,14.29
2023-05-12T17:54:31.174Z,14.08
2023-05-12T17:56:44.015Z,13.9
2023-05-12T17:58:56.415Z,13.69
2023-05-12T18:01:08.670Z,13.53
2023-05-12T18:06:00.134Z,13.08
2023-05-12T18:08:13.844Z,12.88
2023-05-12T18:10:25.338Z,12.65
2023-05-12T18:12:42.080Z,12.45
2023-05-12T18:14:56.674Z,12.25
2023-05-12T18:17:09.584Z,12.11
2023-05-12T18:19:25.717Z,11.94
2023-05-12T18:21:43.487Z,11.73
2023-05-12T18:24:01.292Z,11.49
2023-05-12T18:26:17.502Z,11.34
2023-05-12T18:28:31.356Z,11.24
2023-05-12T18:30:43.468Z,11.08
2023-05-12T18:33:08.019Z,10.94
2023-05-12T18:35:25.002Z,10.82
2023-05-12T18:37:37.679Z,10.65
2023-05-12T18:39:59.852Z,10.56
2023-05-12T18:44:34.678Z,10.25
2023-05-12T18:46:52.668Z,10.14
2023-05-12T18:49:06.938Z,10.04
2023-05-12T18:51:21.778Z,9.94
2023-05-12T18:53:39.281Z,9.81
2023-05-12T18:55:58.213Z,9.65
2023-05-12T18:58:11.293Z,9.56
2023-05-12T19:00:23.834Z,9.49
2023-05-12T19:02:36.733Z,9.37
2023-05-12T19:07:04.653Z,9.17
2023-05-12T19:09:25.316Z,9.07
2023-05-12T19:13:55.337Z,8.96
2023-05-12T19:16:10.141Z,8.89
2023-05-12T19:18:27.089Z,8.82
2023-05-12T19:20:39.092Z,8.75
2023-05-12T19:22:58.532Z,8.66
2023-05-12T19:25:14.180Z,8.6
2023-05-12T19:27:27.615Z,8.53
2023-05-12T19:29:44.339Z,8.5
2023-05-12T19:31:58.853Z,8.47
2023-05-12T19:34:12.440Z,8.44
2023-05-12T19:36:26.419Z,8.38
2023-05-12T19:38:39.581Z,8.33
2023-05-12T19:40:51.708Z,8.27
2023-05-12T19:43:05.350Z,8.22
2023-05-12T19:45:19.198Z,8.14
2023-05-12T19:47:34.127Z,8.09
2023-05-12T19:49:49.222Z,8.04
2023-05-12T19:52:00.787Z,7.98
2023-05-12T19:56:51.539Z,7.87
2023-05-12T19:59:19.513Z,7.82
2023-05-12T20:01:39.166Z,7.78
2023-05-12T20:03:53.298Z,7.74
2023-05-12T20:06:07.875Z,7.71
2023-05-12T20:08:20.059Z,7.67
2023-05-12T20:10:36.377Z,7.63
2023-05-12T20:12:51.457Z,7.58
2023-05-12T20:15:07.935Z,7.57
2023-05-12T20:17:19.639Z,7.53
2023-05-12T20:21:51.135Z,7.44
2023-05-12T20:26:31.636Z,7.37
2023-05-12T20:28:44.261Z,7.33
2023-05-12T20:30:56.894Z,7.28
2023-05-12T20:33:10.819Z,7.22
2023-05-12T20:35:27.873Z,7.18
2023-05-12T20:37:43.394Z,7.16
2023-05-12T20:39:55.377Z,7.16
2023-05-12T20:42:09.516Z,7.19
2023-05-12T20:44:20.494Z,7.19
2023-05-12T20:46:36.402Z,7.22
2023-05-12T20:48:50.178Z,7.29
2023-05-12T20:51:01.516Z,7.35
2023-05-12T20:53:12.513Z,7.41
2023-05-12T20:55:24.796Z,7.48
2023-05-12T20:59:57.358Z,7.52
2023-05-12T21:02:17.037Z,7.51
2023-05-12T21:09:12.752Z,7.43
2023-05-12T21:11:25.620Z,7.39
2023-05-12T21:13:42.537Z,7.35
2023-05-12T21:16:01.284Z,7.27
2023-05-12T21:18:21.800Z,7.21
2023-05-12T21:20:38.296Z,7.11
2023-05-12T21:25:21.749Z,7.05
2023-05-12T21:29:46.612Z,6.99
2023-05-12T21:32:01.552Z,7.01
2023-05-12T21:36:26.971Z,6.95
2023-05-12T21:38:44.212Z,6.94
2023-05-12T21:40:57.412Z,6.93
2023-05-12T21:43:10.876Z,6.92
2023-05-12T21:45:28.313Z,6.96
2023-05-12T21:47:48.412Z,7.02
2023-05-12T21:50:08.967Z,7.05
2023-05-12T21:52:20.971Z,7.06
2023-05-12T21:54:34.370Z,7.08
2023-05-12T21:56:52.808Z,7.09
2023-05-12T21:59:11.321Z,7.04
2023-05-12T22:01:23.161Z,7
2023-05-12T22:03:36.901Z,6.99
2023-05-12T22:05:49.532Z,6.93
2023-05-12T22:08:02.234Z,6.87
2023-05-12T22:10:15.147Z,6.8
2023-05-12T22:12:31.978Z,6.78
2023-05-12T22:14:55.935Z,6.75
2023-05-12T22:17:10.476Z,6.72
2023-05-12T22:19:24.677Z,6.67
2023-05-12T22:21:40.139Z,6.65
2023-05-12T22:28:40.620Z,6.5
2023-05-12T22:30:51.721Z,6.5
2023-05-12T22:33:05.850Z,6.48
2023-05-12T22:37:34.139Z,6.37
2023-05-12T22:39:46.655Z,6.32
2023-05-12T22:47:05.583Z,6.23
2023-05-12T22:49:16.740Z,6.18
2023-05-12T22:51:35.061Z,6.15
2023-05-12T22:53:59.459Z,6.18
2023-05-12T22:56:11.703Z,6.16
2023-05-12T22:58:24.814Z,6.12
2023-05-12T23:00:37.500Z,6.07
2023-05-12T23:02:49.459Z,6.01
2023-05-12T23:05:02.500Z,5.97
2023-05-12T23:07:15.060Z,5.92
2023-05-12T23:09:26.259Z,5.86
2023-05-12T23:11:39.816Z,5.85
2023-05-12T23:13:55.098Z,5.83
2023-05-12T23:16:06.963Z,5.78
2023-05-12T23:18:23.710Z,5.74
2023-05-12T23:22:50.615Z,5.67
2023-05-12T23:25:09.523Z,5.61
2023-05-12T23:27:24.717Z,5.55
2023-05-12T23:29:40.053Z,5.52
2023-05-12T23:31:51.724Z,5.54
2023-05-12T23:34:05.223Z,5.57
2023-05-12T23:36:18.598Z,5.58
2023-05-12T23:38:30.258Z,5.56
2023-05-12T23:40:45.276Z,5.52
2023-05-12T23:42:57.338Z,5.48
2023-05-12T23:45:13.777Z,5.46
2023-05-12T23:49:40.412Z,5.37
2023-05-12T23:51:52.832Z,5.31
2023-05-12T23:54:04.574Z,5.29
2023-05-12T23:56:19.394Z,5.21
2023-05-12T23:58:32.436Z,5.18
